Time;durP1;ratioP1;P1;durP2;ratioP2;P2;SDS_P1;SDS_P2;PMS_P1;PMS_P2;Temp;Humidity;BMP_temperature;BMP_pressure;BME280_temperature;BME280_humidity;BME280_pressure;Samples;Min_cycle;Max_cycle;Signal;HPM_P1;HPM_P2
2022/09/12 00:02:30;;;;;;;15.68;14.55;;;;;;;14.73;100.00;100101.06;10544813;28;20056;-71
2022/09/12 00:07:32;;;;;;;17.55;16.25;;;;;;;14.55;100.00;100094.84;10545473;28;20106;-71
2022/09/12 00:12:34;;;;;;;17.58;16.27;;;;;;;14.51;100.00;100102.06;10527580;28;20048;-71
2022/09/12 00:17:37;;;;;;;19.63;18.20;;;;;;;14.52;100.00;100100.28;10527917;28;20032;-71
2022/09/12 00:22:39;;;;;;;20.60;19.33;;;;;;;14.45;100.00;100097.03;10544866;28;20040;-71
2022/09/12 00:27:40;;;;;;;20.48;18.88;;;;;;;14.41;100.00;100100.75;10527425;28;20063;-71
2022/09/12 00:32:43;;;;;;;18.42;17.13;;;;;;;14.68;100.00;100103.06;10545129;28;20048;-72
2022/09/12 00:37:45;;;;;;;18.42;17.23;;;;;;;14.57;100.00;100093.88;10545859;28;20036;-72
2022/09/12 00:42:47;;;;;;;18.52;17.25;;;;;;;14.72;100.00;100099.34;10526570;28;20048;-71
2022/09/12 00:47:48;;;;;;;18.15;16.95;;;;;;;14.69;100.00;100091.56;10544870;28;20538;-71
2022/09/12 00:52:59;;;;;;;19.55;17.88;;;;;;;14.46;100.00;100087.31;10545203;28;20044;-71
2022/09/12 00:58:22;;;;;;;18.05;16.95;;;;;;;14.49;100.00;100084.56;10545841;28;20040;-71
2022/09/12 01:03:24;;;;;;;20.25;18.65;;;;;;;14.34;100.00;100079.06;10529139;28;20044;-72
2022/09/12 01:08:27;;;;;;;18.95;17.60;;;;;;;14.17;100.00;100078.97;10526863;28;20477;-71
2022/09/12 01:13:30;;;;;;;19.02;17.50;;;;;;;14.10;100.00;100070.44;10540946;28;20047;-70
2022/09/12 01:18:49;;;;;;;18.85;17.50;;;;;;;14.02;100.00;100075.22;10523032;28;20036;-70
2022/09/12 01:24:32;;;;;;;21.63;20.13;;;;;;;13.89;100.00;100071.41;10542225;28;20453;-69
2022/09/12 01:29:58;;;;;;;21.38;19.88;;;;;;;13.82;100.00;100081.41;10330610;28;20083;-70
2022/09/12 01:35:20;;;;;;;19.33;17.95;;;;;;;13.87;100.00;100076.78;10331037;28;20058;-69
2022/09/12 01:40:30;;;;;;;19.45;18.05;;;;;;;13.88;100.00;100078.47;10314603;28;20106;-69
2022/09/12 01:45:44;;;;;;;18.95;17.65;;;;;;;14.03;100.00;100069.03;10330775;28;20472;-69
2022/09/12 01:50:55;;;;;;;18.60;17.17;;;;;;;13.94;100.00;100066.78;10330471;28;20169;-69
2022/09/12 01:56:06;;;;;;;20.60;18.77;;;;;;;14.04;100.00;100060.16;10330769;28;20070;-69
2022/09/12 02:01:14;;;;;;;17.67;16.48;;;;;;;13.99;100.00;100058.63;10504628;28;20041;-70
2022/09/12 02:06:46;;;;;;;19.42;17.98;;;;;;;13.87;100.00;100063.56;10539123;28;20047;-69
2022/09/12 02:11:52;;;;;;;19.05;17.30;;;;;;;13.84;100.00;100063.69;10530875;28;20052;-70
2022/09/12 02:17:00;;;;;;;22.53;20.93;;;;;;;13.81;100.00;100057.69;10539715;28;20451;-69
2022/09/12 02:22:03;;;;;;;24.33;21.50;;;;;;;13.76;100.00;100055.25;10541512;28;20113;-70
2022/09/12 02:27:12;;;;;;;21.83;20.23;;;;;;;13.73;100.00;100054.53;10546780;28;20052;-71
2022/09/12 02:32:16;;;;;;;21.48;20.02;;;;;;;13.72;100.00;100052.81;10546634;28;20040;-70
2022/09/12 02:37:37;;;;;;;23.00;21.30;;;;;;;13.74;100.00;100056.25;10546877;28;20040;-70
2022/09/12 02:42:39;;;;;;;23.08;21.38;;;;;;;13.77;100.00;100062.25;10546266;28;20078;-70
2022/09/12 02:47:45;;;;;;;22.98;21.17;;;;;;;13.69;100.00;100051.19;10547049;28;20040;-70
2022/09/12 02:52:47;;;;;;;23.40;21.77;;;;;;;13.95;100.00;100047.38;10547164;28;20394;-70
2022/09/12 02:57:49;;;;;;;22.35;20.65;;;;;;;14.00;100.00;100048.00;10546253;28;20086;-70
2022/09/12 03:03:37;;;;;;;23.73;21.38;;;;;;;13.80;100.00;100053.31;10546622;28;20135;-69
2022/09/12 03:09:13;;;;;;;22.88;21.27;;;;;;;13.77;100.00;100050.84;10546542;28;20044;-70
2022/09/12 03:14:30;;;;;;;24.95;22.83;;;;;;;13.60;100.00;100048.94;10545689;28;20047;-69
2022/09/12 03:19:40;;;;;;;27.33;24.63;;;;;;;13.65;100.00;100048.75;10545033;28;20048;-70
2022/09/12 03:24:55;;;;;;;23.48;21.67;;;;;;;13.53;100.00;100047.47;10545505;28;20108;-69
2022/09/12 03:29:58;;;;;;;26.15;24.13;;;;;;;13.48;100.00;100045.03;10545339;28;20118;-70
2022/09/12 03:35:00;;;;;;;25.95;23.85;;;;;;;13.46;100.00;100051.31;10543985;28;20131;-74
2022/09/12 03:40:04;;;;;;;25.13;23.23;;;;;;;13.45;100.00;100053.09;10544730;28;20036;-73
2022/09/12 03:45:08;;;;;;;25.38;23.33;;;;;;;13.71;100.00;100037.88;10526581;28;20090;-73
2022/09/12 03:50:10;;;;;;;27.88;25.08;;;;;;;13.63;100.00;100041.75;10546114;28;20115;-71
2022/09/12 03:55:11;;;;;;;26.08;23.98;;;;;;;13.93;100.00;100046.56;10529996;28;20040;-71
2022/09/12 04:00:13;;;;;;;26.65;24.38;;;;;;;13.65;100.00;100054.88;10547894;28;20042;-71
2022/09/12 04:05:20;;;;;;;30.27;27.20;;;;;;;13.55;100.00;100050.94;10547760;28;20040;-71
2022/09/12 04:10:21;;;;;;;25.45;23.25;;;;;;;13.54;100.00;100059.75;10528318;28;20212;-70
2022/09/12 04:15:23;;;;;;;25.38;23.20;;;;;;;13.52;100.00;100062.47;10547171;28;20090;-71
2022/09/12 04:20:25;;;;;;;27.23;24.85;;;;;;;13.67;100.00;100049.50;10546719;28;20440;-71
2022/09/12 04:25:27;;;;;;;26.25;23.90;;;;;;;13.72;100.00;100055.44;10528246;28;20052;-71
2022/09/12 04:30:28;;;;;;;26.05;24.05;;;;;;;13.66;100.00;100053.09;10546512;28;20040;-72
2022/09/12 04:35:34;;;;;;;28.77;26.33;;;;;;;13.56;100.00;100053.50;10542249;28;20071;-71
2022/09/12 04:40:36;;;;;;;31.88;28.05;;;;;;;13.54;100.00;100057.13;10542064;28;20469;-71
2022/09/12 04:45:38;;;;;;;27.88;25.35;;;;;;;13.54;100.00;100065.88;10541835;28;20105;-72
2022/09/12 04:50:40;;;;;;;30.40;27.38;;;;;;;13.57;100.00;100064.91;10542029;28;20048;-71
2022/09/12 04:55:42;;;;;;;28.88;26.52;;;;;;;13.55;100.00;100065.00;10524063;28;20503;-71
2022/09/12 05:00:43;;;;;;;28.67;25.98;;;;;;;13.53;100.00;100077.38;10543132;28;20036;-72
2022/09/12 05:05:45;;;;;;;27.60;25.23;;;;;;;13.57;100.00;100068.41;10541950;28;20551;-72
2022/09/12 05:10:47;;;;;;;25.60;23.35;;;;;;;13.62;100.00;100079.63;10541537;28;20037;-72
2022/09/12 05:15:58;;;;;;;25.67;23.65;;;;;;;13.57;100.00;100081.63;10540951;28;20044;-72
2022/09/12 05:21:02;;;;;;;25.92;22.25;;;;;;;13.60;100.00;100073.56;10523137;28;20048;-72
2022/09/12 05:26:05;;;;;;;27.13;24.83;;;;;;;13.78;100.00;100092.19;10540692;28;20044;-72
2022/09/12 05:31:20;;;;;;;24.73;22.38;;;;;;;13.81;100.00;100084.09;10541723;28;20436;-72
2022/09/12 05:36:28;;;;;;;31.23;26.48;;;;;;;13.86;100.00;100085.63;10540658;28;20097;-72
2022/09/12 05:41:32;;;;;;;24.58;22.60;;;;;;;13.93;100.00;100094.13;10539843;28;20569;-72
2022/09/12 05:46:39;;;;;;;27.17;24.95;;;;;;;14.05;100.00;100096.22;10540310;28;20044;-72
2022/09/12 05:51:44;;;;;;;25.65;23.60;;;;;;;14.17;100.00;100099.25;10540870;28;20036;-72
2022/09/12 05:56:47;;;;;;;26.73;24.33;;;;;;;14.04;100.00;100107.75;10524590;28;20123;-72
2022/09/12 06:01:48;;;;;;;26.98;24.38;;;;;;;14.08;100.00;100106.69;10549122;28;20500;-72
2022/09/12 06:06:50;;;;;;;27.30;24.65;;;;;;;14.09;100.00;100095.16;10548149;28;20063;-72
2022/09/12 06:11:52;;;;;;;24.38;22.50;;;;;;;14.25;100.00;100103.25;10548530;28;20040;-72
2022/09/12 06:16:54;;;;;;;26.67;24.27;;;;;;;14.39;100.00;100110.56;10548079;28;20505;-72
2022/09/12 06:21:56;;;;;;;28.25;25.33;;;;;;;14.41;100.00;100113.97;10548455;28;20047;-72
2022/09/12 06:26:57;;;;;;;26.70;24.17;;;;;;;14.56;100.00;100110.63;10547696;28;20131;-72
2022/09/12 06:31:59;;;;;;;25.42;23.33;;;;;;;14.76;100.00;100116.81;10548364;28;20054;-72
2022/09/12 06:37:02;;;;;;;26.70;24.17;;;;;;;14.79;100.00;100112.22;10529777;28;20048;-72
2022/09/12 06:42:04;;;;;;;23.27;21.45;;;;;;;15.05;100.00;100112.72;10511446;28;20048;-72
2022/09/12 06:47:10;;;;;;;24.17;22.17;;;;;;;15.28;100.00;100116.91;10507604;28;20057;-72
2022/09/12 06:52:12;;;;;;;23.00;21.17;;;;;;;15.57;97.17;100115.44;10504642;28;20082;-72
2022/09/12 06:57:14;;;;;;;23.20;21.40;;;;;;;15.64;96.42;100122.16;10504422;28;20079;-72
2022/09/12 07:02:15;;;;;;;24.23;21.98;;;;;;;15.48;98.77;100126.50;10504254;28;20041;-72
2022/09/12 07:07:17;;;;;;;20.75;19.15;;;;;;;15.78;94.78;100126.75;10503102;28;20074;-72
2022/09/12 07:12:18;;;;;;;21.13;19.63;;;;;;;15.72;95.16;100129.75;10504349;28;20086;-72
2022/09/12 07:17:20;;;;;;;22.35;20.65;;;;;;;15.68;97.34;100130.84;10503931;28;20053;-72
2022/09/12 07:22:22;;;;;;;19.13;17.70;;;;;;;15.60;97.58;100139.13;10485115;28;20122;-72
2022/09/12 07:27:23;;;;;;;20.35;18.85;;;;;;;15.72;97.00;100148.28;10504228;28;20044;-72
2022/09/12 07:32:25;;;;;;;18.55;17.05;;;;;;;15.64;96.88;100144.22;10484846;28;20558;-72
2022/09/12 07:37:30;;;;;;;19.08;17.52;;;;;;;15.60;100.00;100145.28;10502504;28;20040;-72
2022/09/12 07:42:31;;;;;;;19.25;17.58;;;;;;;15.67;99.62;100147.63;10506375;28;20049;-72
2022/09/12 07:47:33;;;;;;;16.70;15.13;;;;;;;15.66;98.13;100141.50;10537490;28;20051;-72
2022/09/12 07:52:35;;;;;;;16.23;14.68;;;;;;;16.06;94.64;100142.94;10513878;28;20044;-72
2022/09/12 07:57:36;;;;;;;15.55;14.38;;;;;;;16.30;93.79;100139.94;10529684;28;20109;-72
2022/09/12 08:02:38;;;;;;;15.45;14.32;;;;;;;16.24;91.69;100137.59;10448285;28;20076;-72
2022/09/12 08:07:40;;;;;;;12.90;12.00;;;;;;;16.27;91.45;100148.91;10469982;28;20153;-72
2022/09/12 08:12:41;;;;;;;14.02;13.02;;;;;;;16.50;90.29;100141.50;10543494;28;20048;-73
2022/09/12 08:17:43;;;;;;;14.88;13.77;;;;;;;16.36;91.11;100148.41;10524527;28;20052;-73
2022/09/12 08:22:45;;;;;;;13.20;12.25;;;;;;;16.40;90.37;100149.09;10543065;28;20053;-73
2022/09/12 08:27:47;;;;;;;13.82;12.75;;;;;;;16.47;90.43;100155.78;10511100;28;20098;-73
2022/09/12 08:32:48;;;;;;;12.68;11.85;;;;;;;16.16;89.59;100151.28;10500915;28;20095;-73
2022/09/12 08:37:50;;;;;;;11.55;10.65;;;;;;;16.10;89.17;100151.59;10502009;28;20041;-73
2022/09/12 08:43:09;;;;;;;9.77;9.07;;;;;;;16.62;87.61;100149.63;10482754;28;20537;-73
2022/09/12 08:48:12;;;;;;;8.70;8.10;;;;;;;16.75;83.08;100152.50;10500204;28;20099;-73
2022/09/12 08:53:20;;;;;;;9.98;9.27;;;;;;;16.84;81.78;100152.00;10482512;28;20056;-73
2022/09/12 08:58:23;;;;;;;9.25;8.45;;;;;;;16.65;83.29;100144.16;10501822;28;20401;-73
2022/09/12 09:03:46;;;;;;;8.80;8.20;;;;;;;16.83;83.10;100141.47;10541351;28;20048;-74
2022/09/12 09:09:07;;;;;;;8.00;7.47;;;;;;;17.71;77.76;100143.47;10524497;28;20046;-74
2022/09/12 09:14:48;;;;;;;8.15;7.55;;;;;;;17.69;78.28;100142.69;10507269;28;20421;-74
2022/09/12 09:19:57;;;;;;;7.03;6.53;;;;;;;16.97;78.63;100138.91;10522722;28;20489;-74
2022/09/12 09:25:04;;;;;;;7.18;6.55;;;;;;;16.86;80.52;100141.28;10541148;28;20051;-74
2022/09/12 09:30:14;;;;;;;6.18;5.78;;;;;;;17.39;79.90;100135.56;10542046;28;20040;-74
2022/09/12 09:35:31;;;;;;;5.80;5.30;;;;;;;18.72;74.41;100128.41;10541357;28;20047;-74
2022/09/12 09:40:51;;;;;;;4.82;4.53;;;;;;;19.33;69.84;100121.75;10522974;28;20117;-74
2022/09/12 09:45:55;;;;;;;;;;;;;;;19.02;68.98;100136.25;10542463;28;20044;-74
2022/09/12 09:50:59;;;;;;;4.13;3.83;;;;;;;19.02;66.08;100131.75;10541006;28;19927;-74
2022/09/12 09:56:09;;;;;;;4.22;3.83;;;;;;;18.87;66.52;100127.44;10540622;28;20082;-74
2022/09/12 10:01:14;;;;;;;4.03;3.70;;;;;;;19.42;64.59;100123.81;10480955;28;20409;-74
2022/09/12 10:06:22;;;;;;;3.25;2.97;;;;;;;19.80;64.65;100117.72;10499396;28;20127;-74
2022/09/12 10:11:27;;;;;;;2.67;2.47;;;;;;;20.09;62.05;100110.34;10482050;28;20387;-74
2022/09/12 10:16:31;;;;;;;2.90;2.70;;;;;;;19.23;62.54;100115.34;10499038;28;20036;-75
2022/09/12 10:21:50;;;;;;;3.13;2.45;;;;;;;19.12;63.18;100116.03;10480931;28;20119;-74
2022/09/12 10:27:10;;;;;;;2.70;2.30;;;;;;;18.98;66.29;100111.59;10499200;28;20106;-74
2022/09/12 10:32:24;;;;;;;3.10;2.90;;;;;;;19.50;63.76;100105.47;10498621;28;20102;-74
2022/09/12 10:37:38;;;;;;;3.13;1.58;;;;;;;20.38;56.73;100109.16;10498377;28;20123;-73
2022/09/12 10:42:51;;;;;;;1.65;1.55;;;;;;;20.32;57.95;100106.94;10499519;28;20048;-74
2022/09/12 10:47:57;;;;;;;1.40;1.20;;;;;;;20.10;58.28;100099.59;10487852;28;20055;-74
2022/09/12 10:53:24;;;;;;;1.80;1.10;;;;;;;21.28;52.02;100090.16;10506738;28;20047;-70
2022/09/12 10:58:52;;;;;;;1.40;1.30;;;;;;;21.40;52.46;100079.44;10503945;28;20063;-70
2022/09/12 11:04:25;;;;;;;2.33;2.13;;;;;;;22.35;52.07;100069.34;10505431;28;20076;-70
2022/09/12 11:09:47;;;;;;;1.02;1.00;;;;;;;22.47;48.71;100069.34;10487271;28;20044;-69
2022/09/12 11:15:04;;;;;;;1.15;0.88;;;;;;;22.13;48.89;100069.34;10486474;28;20048;-69
2022/09/12 11:20:43;;;;;;;1.27;0.80;;;;;;;21.79;50.92;100076.50;10504864;28;20071;-69
2022/09/12 11:26:19;;;;;;;0.90;0.80;;;;;;;22.11;49.49;100066.78;10414148;28;20056;-69
2022/09/12 11:31:42;;;;;;;1.67;0.80;;;;;;;22.98;46.68;100069.63;10491905;28;20102;-70
2022/09/12 11:37:13;;;;;;;0.60;0.40;;;;;;;23.37;45.71;100068.13;10477304;28;20518;-70
2022/09/12 11:42:28;;;;;;;0.75;0.75;;;;;;;22.63;44.22;100075.16;10494595;28;20084;-69
2022/09/12 11:47:33;;;;;;;1.02;0.60;;;;;;;22.90;42.95;100067.56;10502536;28;20098;-69
2022/09/12 11:52:37;;;;;;;0.45;0.43;;;;;;;22.90;44.02;100075.63;10503626;28;20028;-69
2022/09/12 11:57:57;;;;;;;1.42;0.70;;;;;;;22.65;44.69;100063.34;10502726;28;20449;-70
2022/09/12 12:03:30;;;;;;;1.33;0.60;;;;;;;22.27;46.18;100061.09;10502868;28;20048;-70
2022/09/12 12:08:38;;;;;;;0.80;0.80;;;;;;;22.00;47.40;100063.22;10503517;28;20052;-70
2022/09/12 12:13:46;;;;;;;0.88;0.60;;;;;;;21.52;47.84;100071.44;10502975;28;20044;-70
2022/09/12 12:18:55;;;;;;;1.00;0.60;;;;;;;20.70;49.04;100073.13;10501978;28;20055;-71
2022/09/12 12:24:08;;;;;;;0.93;0.80;;;;;;;20.88;50.14;100059.25;10502191;28;20049;-70
2022/09/12 12:29:18;;;;;;;1.02;0.60;;;;;;;20.34;49.31;100051.59;10483395;28;20048;-71
2022/09/12 12:34:46;;;;;;;1.52;0.75;;;;;;;20.11;51.40;100047.91;10501365;28;20101;-70
2022/09/12 12:39:49;;;;;;;1.48;0.68;;;;;;;19.89;51.90;100045.06;10497154;28;20064;-70
2022/09/12 12:44:50;;;;;;;0.82;0.70;;;;;;;20.47;50.29;100040.06;10501413;28;20087;-70
2022/09/12 12:49:57;;;;;;;0.50;0.50;;;;;;;20.54;49.02;100039.53;10501282;28;20044;-70
2022/09/12 12:55:03;;;;;;;1.52;0.80;;;;;;;20.39;51.03;100032.59;10483687;28;20091;-70
2022/09/12 13:00:24;;;;;;;1.02;0.60;;;;;;;20.55;49.73;100027.88;10501379;28;20525;-70
2022/09/12 13:05:28;;;;;;;1.33;0.70;;;;;;;20.74;50.07;100014.00;10500739;28;20045;-70
2022/09/12 13:10:30;;;;;;;0.68;0.68;;;;;;;20.74;49.00;100000.66;10501229;28;20556;-70
2022/09/12 13:15:35;;;;;;;1.00;0.68;;;;;;;20.76;48.38;99996.06;10482547;28;20064;-70
2022/09/12 13:20:46;;;;;;;0.70;0.70;;;;;;;20.61;48.67;99994.50;10481887;28;20040;-70
2022/09/12 13:25:54;;;;;;;1.27;0.77;;;;;;;20.48;49.23;99996.38;10499743;28;20102;-69
2022/09/12 13:30:59;;;;;;;1.05;0.50;;;;;;;20.39;48.53;99996.06;10498999;28;20039;-69
2022/09/12 13:36:19;;;;;;;0.40;0.40;;;;;;;20.76;47.69;99984.50;10481498;28;20075;-70
2022/09/12 13:41:39;;;;;;;0.68;0.50;;;;;;;20.62;47.96;99986.38;10480960;28;20048;-69
2022/09/12 13:46:41;;;;;;;1.38;0.77;;;;;;;20.83;46.95;99989.28;10481374;28;20075;-69
2022/09/12 13:51:43;;;;;;;1.45;0.60;;;;;;;20.78;47.34;99983.44;10499402;28;20047;-69
2022/09/12 13:56:48;;;;;;;0.50;0.50;;;;;;;20.74;49.31;99981.94;10499035;28;20125;-69
2022/09/12 14:01:50;;;;;;;0.93;0.50;;;;;;;20.85;47.24;99979.34;10498235;28;20040;-70
2022/09/12 14:06:52;;;;;;;1.25;0.70;;;;;;;20.69;49.85;99977.94;10498594;28;20305;-70
2022/09/12 14:11:55;;;;;;;1.40;0.60;;;;;;;20.74;50.12;99979.28;10498818;28;20411;-71
2022/09/12 14:16:58;;;;;;;1.30;0.80;;;;;;;20.51;50.51;99967.66;10501330;28;20099;-70
2022/09/12 14:22:00;;;;;;;0.70;0.70;;;;;;;20.52;49.29;99969.34;10522768;28;20036;-71
2022/09/12 14:27:03;;;;;;;0.75;0.60;;;;;;;20.55;49.47;99965.59;10517404;28;20061;-71
2022/09/12 14:32:20;;;;;;;1.00;0.90;;;;;;;20.63;49.26;99964.06;10488326;28;20048;-71
2022/09/12 14:37:23;;;;;;;0.80;0.50;;;;;;;20.62;48.74;99970.34;10531542;28;20040;-71
2022/09/12 14:42:30;;;;;;;0.63;0.50;;;;;;;20.81;48.62;99950.31;10548252;28;20051;-70
2022/09/12 14:47:36;;;;;;;;;;;;;;;20.75;49.85;99956.09;10547522;28;20086;-68
2022/09/12 14:52:38;;;;;;;0.65;0.52;;;;;;;20.63;49.68;99955.22;10535802;28;19927;-70
2022/09/12 14:57:43;;;;;;;0.93;0.60;;;;;;;20.61;49.12;99946.44;10505295;28;20053;-71
2022/09/12 15:02:46;;;;;;;0.73;0.50;;;;;;;20.41;49.11;99947.91;10486965;28;20616;-70
2022/09/12 15:07:58;;;;;;;0.82;0.50;;;;;;;20.47;48.40;99942.09;10504156;28;20087;-71
2022/09/12 15:13:09;;;;;;;0.43;0.40;;;;;;;20.59;48.66;99941.22;10504664;28;20048;-70
2022/09/12 15:18:12;;;;;;;1.95;0.60;;;;;;;20.37;50.18;99930.41;10504602;28;20076;-70
2022/09/12 15:23:26;;;;;;;0.55;0.50;;;;;;;20.41;50.52;99935.41;10504072;28;20048;-71
2022/09/12 15:28:29;;;;;;;1.40;0.60;;;;;;;20.46;49.85;99929.72;10485498;28;20037;-70
2022/09/12 15:33:31;;;;;;;0.70;0.50;;;;;;;20.46;51.53;99934.22;10503797;28;20490;-68
2022/09/12 15:38:32;;;;;;;0.90;0.60;;;;;;;20.24;52.61;99924.28;10504085;28;20040;-69
2022/09/12 15:43:34;;;;;;;1.98;0.70;;;;;;;20.17;52.82;99930.03;10503954;28;20044;-69
2022/09/12 15:48:36;;;;;;;2.67;0.52;;;;;;;20.18;52.97;99930.91;10503065;28;20049;-68
2022/09/12 15:53:38;;;;;;;0.75;0.55;;;;;;;19.98;54.14;99927.03;10502917;28;20049;-69
2022/09/12 15:58:40;;;;;;;0.88;0.38;;;;;;;19.88;54.44;99931.31;10501975;28;20413;-69
2022/09/12 16:04:02;;;;;;;1.52;0.80;;;;;;;19.80;54.58;99941.69;10501657;28;20123;-70
2022/09/12 16:09:03;;;;;;;1.58;0.50;;;;;;;19.64;55.11;99932.09;10485201;28;20067;-71
2022/09/12 16:14:05;;;;;;;1.13;0.50;;;;;;;19.69;54.83;99928.25;10501452;28;20451;-69
2022/09/12 16:19:11;;;;;;;0.60;0.60;;;;;;;19.39;54.97;99918.78;10500930;28;20036;-68
2022/09/12 16:24:12;;;;;;;1.00;0.70;;;;;;;19.32;55.42;99912.16;10501673;28;20045;-70
2022/09/12 16:29:14;;;;;;;0.60;0.60;;;;;;;19.16;57.38;99912.38;10500697;28;20044;-70
2022/09/12 16:34:16;;;;;;;0.68;0.68;;;;;;;19.31;55.73;99908.66;10501554;28;20135;-69
2022/09/12 16:39:17;;;;;;;0.60;0.60;;;;;;;18.99;57.19;99902.91;10482828;28;20091;-70
2022/09/12 16:44:19;;;;;;;3.17;0.77;;;;;;;19.16;56.47;99904.38;10500289;28;20045;-70
2022/09/12 16:49:21;;;;;;;1.77;0.82;;;;;;;18.96;56.51;99894.25;10500456;28;20083;-70
2022/09/12 16:54:23;;;;;;;0.98;0.60;;;;;;;18.72;59.19;99896.75;10500824;28;20053;-70
2022/09/12 16:59:24;;;;;;;0.70;0.70;;;;;;;18.46;59.44;99887.84;10482071;28;20047;-70
2022/09/12 17:04:26;;;;;;;0.70;0.70;;;;;;;18.40;61.12;99884.63;10499608;28;20079;-70
2022/09/12 17:09:28;;;;;;;0.80;0.80;;;;;;;18.22;62.96;99880.53;10500364;28;20462;-70
2022/09/12 17:14:29;;;;;;;1.50;0.90;;;;;;;18.12;63.31;99874.13;10500798;28;21523;-70
2022/09/12 17:19:31;;;;;;;1.08;0.85;;;;;;;18.15;64.93;99877.44;10516503;28;20040;-69
2022/09/12 17:24:33;;;;;;;1.02;0.85;;;;;;;17.95;66.30;99877.88;10533947;28;20044;-70
2022/09/12 17:29:37;;;;;;;1.10;0.85;;;;;;;17.85;67.29;99874.94;10482278;28;20508;-69
2022/09/12 17:34:39;;;;;;;2.10;1.20;;;;;;;17.92;68.86;99880.72;10485634;28;20055;-69
2022/09/12 17:39:40;;;;;;;1.20;1.10;;;;;;;17.84;70.44;99869.72;10541569;28;20478;-69
2022/09/12 17:44:42;;;;;;;1.23;1.13;;;;;;;17.58;71.25;99871.38;10541276;28;20090;-69
2022/09/12 17:49:44;;;;;;;2.75;1.40;;;;;;;17.45;72.20;99876.59;10538339;28;20364;-69
2022/09/12 17:54:46;;;;;;;1.40;1.30;;;;;;;17.45;73.24;99873.94;10485904;28;20071;-70
2022/09/12 17:59:47;;;;;;;1.98;1.45;;;;;;;17.28;73.38;99880.31;10506998;28;20504;-70
2022/09/12 18:04:49;;;;;;;1.52;1.40;;;;;;;17.14;73.78;99875.84;10506739;28;20067;-69
2022/09/12 18:09:51;;;;;;;1.83;1.63;;;;;;;17.07;74.71;99882.47;10507531;28;20403;-69
2022/09/12 18:14:53;;;;;;;4.43;2.75;;;;;;;16.99;75.71;99874.09;10522618;28;20044;-69
2022/09/12 18:19:55;;;;;;;2.63;1.83;;;;;;;16.90;76.29;99880.81;10506634;28;20044;-69
2022/09/12 18:24:56;;;;;;;3.83;1.90;;;;;;;16.81;76.71;99880.53;10506307;28;20058;-69
2022/09/12 18:29:58;;;;;;;1.88;1.60;;;;;;;16.69;77.55;99883.88;10490608;28;20066;-70
2022/09/12 18:35:20;;;;;;;1.90;1.70;;;;;;;16.49;78.29;99877.97;10489852;28;20417;-69
2022/09/12 18:40:21;;;;;;;4.30;1.65;;;;;;;16.33;79.08;99883.28;10506836;28;20036;-70
2022/09/12 18:45:23;;;;;;;1.90;1.80;;;;;;;16.20;79.59;99884.09;10488706;28;20045;-71
2022/09/12 18:50:25;;;;;;;2.05;1.67;;;;;;;16.14;79.76;99883.50;10506241;28;20102;-71
2022/09/12 18:55:26;;;;;;;2.35;1.60;;;;;;;16.00;80.51;99883.44;10506018;28;20457;-70
2022/09/12 19:00:28;;;;;;;1.83;1.73;;;;;;;15.93;81.25;99884.72;10505023;28;20040;-70
2022/09/12 19:05:30;;;;;;;1.90;1.40;;;;;;;15.84;81.77;99890.53;10524860;22;20044;-71
2022/09/12 19:10:32;;;;;;;3.20;1.77;;;;;;;15.70;81.98;99879.84;10529140;28;20063;-71
2022/09/12 19:15:38;;;;;;;2.80;2.25;;;;;;;15.67;82.71;99872.94;10548045;28;20059;-71
2022/09/12 19:20:40;;;;;;;2.97;2.22;;;;;;;15.43;84.98;99876.88;10518771;28;20114;-70
2022/09/12 19:25:41;;;;;;;3.97;2.00;;;;;;;15.35;85.34;99877.28;10548021;28;20412;-70
2022/09/12 19:30:46;;;;;;;3.72;2.10;;;;;;;15.28;85.85;99867.97;10528738;28;20040;-71
2022/09/12 19:35:49;;;;;;;4.45;2.20;;;;;;;15.31;86.55;99870.44;10545729;28;20044;-70
2022/09/12 19:40:58;;;;;;;2.75;2.40;;;;;;;15.14;86.97;99868.72;10547751;28;20097;-71
2022/09/12 19:46:00;;;;;;;2.05;1.80;;;;;;;15.02;87.85;99872.00;10545555;28;20048;-71
2022/09/12 19:51:03;;;;;;;3.38;2.22;;;;;;;14.88;88.71;99860.34;10545459;28;20040;-71
2022/09/12 19:56:05;;;;;;;3.78;2.58;;;;;;;15.01;88.16;99857.94;10545206;28;20044;-70
2022/09/12 20:01:13;;;;;;;3.40;2.55;;;;;;;15.12;87.18;99852.06;10545550;28;20040;-71
2022/09/12 20:06:16;;;;;;;2.88;2.67;;;;;;;14.97;88.48;99851.09;10529755;28;20036;-70
2022/09/12 20:11:20;;;;;;;2.55;2.35;;;;;;;14.74;89.74;99851.41;10544413;28;20044;-71
2022/09/12 20:16:25;;;;;;;4.82;2.88;;;;;;;14.59;90.84;99853.91;10525570;28;20048;-72
2022/09/12 20:21:30;;;;;;;3.58;3.28;;;;;;;14.64;90.86;99853.69;10544313;28;20489;-71
2022/09/12 20:26:33;;;;;;;3.25;2.78;;;;;;;14.49;91.51;99851.81;10545282;28;20071;-71
2022/09/12 20:31:36;;;;;;;3.85;3.38;;;;;;;14.26;93.51;99852.97;10543053;28;20494;-71
2022/09/12 20:36:38;;;;;;;2.72;2.50;;;;;;;14.15;94.21;99845.53;10525995;28;20391;-72
2022/09/12 20:41:40;;;;;;;3.58;2.92;;;;;;;14.00;94.85;99844.53;10525392;28;20052;-72
2022/09/12 20:46:41;;;;;;;3.20;2.83;;;;;;;13.73;97.22;99846.72;10546547;28;20056;-72
2022/09/12 20:51:43;;;;;;;4.07;3.72;;;;;;;13.82;96.86;99838.34;10543301;28;20092;-72
2022/09/12 20:56:45;;;;;;;9.45;4.65;;;;;;;14.01;96.36;99835.66;10543017;28;20545;-72
2022/09/12 21:01:46;;;;;;;5.38;4.75;;;;;;;13.92;96.47;99844.03;10542888;28;20032;-73
2022/09/12 21:06:49;;;;;;;6.35;5.40;;;;;;;13.77;96.81;99839.50;10525235;28;20071;-72
2022/09/12 21:11:50;;;;;;;6.18;5.15;;;;;;;13.65;97.30;99829.50;10544045;28;20047;-72
2022/09/12 21:16:52;;;;;;;6.07;5.47;;;;;;;13.55;98.90;99826.47;10542108;28;20035;-72
2022/09/12 21:21:54;;;;;;;6.78;6.18;;;;;;;13.59;98.73;99826.25;10524624;28;20036;-73
2022/09/12 21:26:55;;;;;;;6.88;5.82;;;;;;;13.61;98.16;99824.38;10541241;28;20386;-72
2022/09/12 21:32:02;;;;;;;6.45;5.50;;;;;;;13.57;98.56;99828.06;10543734;28;20043;-72
2022/09/12 21:37:04;;;;;;;6.85;5.82;;;;;;;13.47;98.71;99825.97;10523947;28;20052;-71
2022/09/12 21:42:05;;;;;;;6.30;5.65;;;;;;;13.36;99.39;99815.88;10542034;28;20505;-72
2022/09/12 21:47:08;;;;;;;6.40;5.72;;;;;;;13.27;99.79;99813.66;10542248;28;20047;-72
2022/09/12 21:52:12;;;;;;;7.43;6.40;;;;;;;13.31;99.30;99804.69;10525989;28;20524;-72
2022/09/12 21:57:14;;;;;;;7.22;6.53;;;;;;;13.50;98.09;99805.56;10524536;28;20497;-72
2022/09/12 22:02:16;;;;;;;6.07;5.47;;;;;;;13.19;99.72;99803.44;10541940;28;20098;-72
2022/09/12 22:07:18;;;;;;;6.45;5.68;;;;;;;13.10;99.91;99803.84;10541440;28;20055;-71
2022/09/12 22:12:20;;;;;;;6.50;6.00;;;;;;;12.92;100.00;99789.72;10541911;28;20503;-72
2022/09/12 22:17:22;;;;;;;6.95;6.13;;;;;;;12.70;100.00;99783.69;10524605;28;20048;-72
2022/09/12 22:27:44;;;;;;;6.25;5.65;;;;;;;12.55;100.00;99785.22;10539803;28;20489;-72
2022/09/12 22:32:50;;;;;;;7.00;6.20;;;;;;;12.80;100.00;99785.88;10540358;28;20032;-72
2022/09/12 22:37:51;;;;;;;6.57;5.97;;;;;;;12.76;100.00;99778.16;10541914;28;20047;-72
2022/09/12 22:42:53;;;;;;;6.25;5.70;;;;;;;12.84;100.00;99774.25;10547640;28;20082;-72
2022/09/12 22:47:55;;;;;;;6.28;5.65;;;;;;;12.78;100.00;99758.69;10547795;28;20047;-72
2022/09/12 22:53:01;;;;;;;6.80;6.10;;;;;;;12.89;100.00;99747.66;10548788;28;20098;-72
2022/09/12 22:58:03;;;;;;;9.82;6.68;;;;;;;12.71;100.00;99746.72;10513108;28;20071;-72
2022/09/12 23:03:05;;;;;;;6.30;5.75;;;;;;;12.80;100.00;99740.16;10528839;28;20052;-72
2022/09/12 23:08:06;;;;;;;7.45;6.35;;;;;;;12.65;100.00;99738.22;10528839;28;20135;-72
2022/09/12 23:13:08;;;;;;;7.10;6.47;;;;;;;12.37;100.00;99726.25;10528242;28;20040;-72
2022/09/12 23:18:10;;;;;;;6.70;6.20;;;;;;;12.53;100.00;99731.72;10547990;28;20075;-72
2022/09/12 23:23:11;;;;;;;7.72;5.68;;;;;;;12.43;100.00;99728.63;10547049;28;20117;-72